No.21 Shinpuku Maru — JM6683 — position and weather

sailwx.info

Track history (hours):
 
Tides and Currents Weather Stations Pressure Air Temp Water Temp Dewpoint Dewpoint Depression Visibility Wind Speed Wind Dir Waves Ship Positions

No.21 Shinpuku Maru

Last reported at 2017-Sep-24 02:59 UTC. Time now 2017-Sep-24 03:23 UTC.
Position N 34°14' E 135°08'.

Length 76 m; draft 5 m.

Type: Cargo ship. MMSI: 431602058.

Date/timePositionNaut miles runAvg speedWind from/ knotsBaromVisibWave heightAir tempDewpointWater temp
2017-Sep-24 02:59N 34°14' E 135°08'0 0.0
2017-Sep-24 02:29N 34°14' E 135°08'0 0.0
2017-Sep-24 01:59N 34°14' E 135°08'0 0.0
2017-Sep-24 01:26N 34°14' E 135°08'0 0.0
2017-Sep-24 00:59N 34°14' E 135°08'0 0.0
2017-Sep-24 00:29N 34°14' E 135°08'0 0.0
2017-Sep-23 23:59N 34°14' E 135°08'0 0.0
2017-Sep-23 23:29N 34°14' E 135°08'0 0.0
2017-Sep-23 22:59N 34°14' E 135°08'0 0.0
2017-Sep-23 22:29N 34°14' E 135°08'0 0.5
2017-Sep-23 21:59N 34°14' E 135°08'2 3.9
2017-Sep-23 21:30N 34°15' E 135°06'0 0.0
2017-Sep-23 21:00N 34°15' E 135°06'0 0.1
2017-Sep-23 20:27N 34°15' E 135°06'0 0.0
2017-Sep-23 19:57N 34°15' E 135°06'15 0.3
2017-Sep-21 20:57N 34°01' E 134°58'612.5
2017-Sep-21 20:29N 34°07' E 135°00'612.6
2017-Sep-21 20:01N 34°12' E 135°03'4 8.1
2017-Sep-21 19:30N 34°14' E 135°08'0 0.0
2017-Sep-21 18:58N 34°14' E 135°08'0 0.0
2017-Sep-21 18:28N 34°14' E 135°08'0 0.0
2017-Sep-21 17:58N 34°14' E 135°08'0 0.0
2017-Sep-21 17:28N 34°14' E 135°08'0 0.0
2017-Sep-21 16:58N 34°14' E 135°08'0 0.0
2017-Sep-21 16:28N 34°14' E 135°08'0 0.0
2017-Sep-21 15:58N 34°14' E 135°08'0 0.0
2017-Sep-21 15:28N 34°14' E 135°08'0 0.0
2017-Sep-21 14:55N 34°14' E 135°08'0 0.0
2017-Sep-21 14:28N 34°14' E 135°08'0 0.0
2017-Sep-21 13:58N 34°14' E 135°08'0 0.0
2017-Sep-21 13:28N 34°14' E 135°08'0 0.0
2017-Sep-21 12:58N 34°14' E 135°08'0 0.0
2017-Sep-21 12:28N 34°14' E 135°08'0 0.0
2017-Sep-21 11:58N 34°14' E 135°08'0 0.0
2017-Sep-21 11:28N 34°14' E 135°08'0 0.0
2017-Sep-21 10:49N 34°14' E 135°08'0 0.0
2017-Sep-21 10:29N 34°14' E 135°08'0 0.6
2017-Sep-21 10:00N 34°14' E 135°08'2 3.8
2017-Sep-21 09:30N 34°15' E 135°06'2 3.6
2017-Sep-21 09:00N 34°13' E 135°04'611.4
2017-Sep-21 08:30N 34°08' E 135°01'711.7
2017-Sep-21 07:52N 34°01' E 134°57'4 0.1
2017-Sep-19 21:34N 34°05' E 134°56'412.0
2017-Sep-19 21:16N 34°08' E 134°59'312.0
2017-Sep-19 20:59N 34°10' E 135°02'511.3
2017-Sep-19 20:30N 34°14' E 135°06'2 3.5
2017-Sep-19 19:59N 34°14' E 135°08'0 0.0
2017-Sep-19 19:29N 34°14' E 135°08'0 0.0
2017-Sep-19 19:00N 34°14' E 135°08'0 0.0
2017-Sep-19 18:30N 34°14' E 135°08'0 0.0
2017-Sep-19 17:59N 34°14' E 135°08'0 0.0
2017-Sep-19 17:29N 34°14' E 135°08'0 0.0
2017-Sep-19 17:00N 34°14' E 135°08'0 0.0
2017-Sep-19 16:30N 34°14' E 135°08'0 0.0
2017-Sep-19 15:59N 34°14' E 135°08'0 0.0
2017-Sep-19 15:29N 34°14' E 135°08'0 0.0
2017-Sep-19 14:59N 34°14' E 135°08'0 0.0
2017-Sep-19 14:29N 34°14' E 135°08'0 0.0
2017-Sep-19 14:00N 34°14' E 135°08'0 0.0
2017-Sep-19 13:29N 34°14' E 135°08'0 0.0
2017-Sep-19 12:59N 34°14' E 135°08'0 0.0
2017-Sep-19 12:29N 34°14' E 135°08'0 0.0
2017-Sep-19 11:59N 34°14' E 135°08'0 0.0
2017-Sep-19 11:30N 34°14' E 135°08'1 1.6
2017-Sep-19 11:00N 34°14' E 135°07'3 6.5
2017-Sep-19 10:30N 34°13' E 135°04'612.3
2017-Sep-19 10:00N 34°07' E 135°00'2 0.1
2017-Sep-18 08:35N 34°05' E 134°60'211.3
2017-Sep-18 08:23N 34°07' E 135°02'411.3
2017-Sep-18 08:00N 34°10' E 135°05'4 7.4
2017-Sep-18 07:29N 34°12' E 135°08'0 0.0
2017-Sep-18 06:59N 34°12' E 135°08'0 0.0
2017-Sep-18 06:29N 34°12' E 135°08'0 0.0
2017-Sep-18 05:59N 34°12' E 135°08'0 0.0
2017-Sep-18 05:29N 34°12' E 135°08'0 0.0
2017-Sep-18 04:59N 34°12' E 135°08'0 0.0
2017-Sep-18 04:29N 34°12' E 135°08'0 0.1
2017-Sep-18 03:59N 34°12' E 135°08'3 6.2
2017-Sep-18 03:30N 34°14' E 135°05'710.7
2017-Sep-18 02:48N 34°21' E 135°07'413.3
2017-Sep-18 02:30N 34°24' E 135°10'0 0.2
2017-Sep-18 00:10N 34°24' E 135°10'0 0.0
2017-Sep-17 23:58N 34°24' E 135°10'0 0.1
2017-Sep-17 23:28N 34°24' E 135°10'0 0.0
2017-Sep-17 22:58N 34°24' E 135°10'0 0.0
2017-Sep-17 22:28N 34°24' E 135°10'0 0.0
2017-Sep-17 21:58N 34°24' E 135°10'0 0.0
2017-Sep-17 21:28N 34°24' E 135°10'0 0.0
2017-Sep-17 20:58N 34°24' E 135°10'0 0.0
2017-Sep-17 20:28N 34°24' E 135°10'0 0.0
2017-Sep-17 19:58N 34°24' E 135°10'0 0.0
2017-Sep-17 19:28N 34°24' E 135°10'0 0.1
2017-Sep-17 18:59N 34°24' E 135°10'0 0.1
2017-Sep-17 18:28N 34°24' E 135°10'0 0.0
2017-Sep-17 17:56N 34°24' E 135°10'0 0.0
2017-Sep-17 17:30N 34°24' E 135°10'0 0.0
2017-Sep-17 16:58N 34°24' E 135°10'0 0.0
2017-Sep-17 16:29N 34°24' E 135°10'0 0.0
2017-Sep-17 16:00N 34°24' E 135°10'0 0.0
2017-Sep-17 15:26N 34°24' E 135°10'0 0.0
2017-Sep-17 14:58N 34°24' E 135°10'0 0.0
2017-Sep-17 14:28N 34°24' E 135°10'0 0.1
2017-Sep-17 13:58N 34°24' E 135°10'0 0.1
2017-Sep-17 12:48N 34°25' E 135°10'0 0.1
2017-Sep-17 11:36N 34°25' E 135°10'0 0.1
2017-Sep-17 11:30N 34°25' E 135°10'0 0.1
2017-Sep-17 10:54N 34°24' E 135°10'0 0.1
2017-Sep-17 10:24N 34°24' E 135°10'0 0.1
2017-Sep-17 09:54N 34°24' E 135°10'0 0.0
2017-Sep-17 09:30N 34°24' E 135°10'0 0.0
2017-Sep-17 09:00N 34°24' E 135°10'0 0.0
2017-Sep-17 08:30N 34°24' E 135°10'0 0.0
2017-Sep-17 08:00N 34°24' E 135°10'0 0.0
2017-Sep-17 07:24N 34°24' E 135°10'0 0.0
2017-Sep-17 07:00N 34°24' E 135°10'0 0.0
2017-Sep-17 06:30N 34°24' E 135°10'0 0.0
2017-Sep-17 06:00N 34°24' E 135°10'0 0.0
2017-Sep-17 05:18N 34°24' E 135°10'0 0.0
2017-Sep-17 05:00N 34°24' E 135°10'0 0.0
2017-Sep-17 04:30N 34°24' E 135°10'0 0.0
2017-Sep-17 04:00N 34°24' E 135°10'0 0.0
2017-Sep-17 03:30N 34°24' E 135°10'0 0.0
2017-Sep-17 03:00N 34°24' E 135°10'0 0.0
2017-Sep-17 02:24N 34°24' E 135°10'0 0.0
2017-Sep-17 01:48N 34°24' E 135°10'0 0.0
2017-Sep-17 01:18N 34°24' E 135°10'0 0.0
2017-Sep-17 01:00N 34°24' E 135°10'0 0.0
2017-Sep-17 00:30N 34°24' E 135°10'0 0.0
2017-Sep-17 00:00N 34°24' E 135°10'0 0.0
2017-Sep-16 23:24N 34°24' E 135°10'0 0.0
2017-Sep-16 23:00N 34°24' E 135°10'0 0.0
2017-Sep-16 22:24N 34°24' E 135°10'0 0.1
2017-Sep-16 22:00N 34°24' E 135°10'0 0.0
2017-Sep-16 21:30N 34°24' E 135°10'0 0.0
2017-Sep-16 20:54N 34°24' E 135°10'0 0.0
2017-Sep-16 20:30N 34°24' E 135°10'0 0.0
2017-Sep-16 20:00N 34°24' E 135°10'0 0.0
2017-Sep-16 19:24N 34°24' E 135°10'0 0.0
2017-Sep-16 18:06N 34°24' E 135°10'0 0.0
2017-Sep-16 17:54N 34°24' E 135°10'0 0.0
2017-Sep-16 17:24N 34°24' E 135°10'0 0.0
2017-Sep-16 17:00N 34°24' E 135°10'0 0.0
2017-Sep-16 16:30N 34°24' E 135°10'0 0.0
2017-Sep-16 15:54N 34°24' E 135°10'0 0.0
2017-Sep-16 15:24N 34°24' E 135°10'0 0.0
2017-Sep-16 15:00N 34°24' E 135°10'0 0.0
2017-Sep-16 14:24N 34°24' E 135°10'0 0.0
2017-Sep-16 13:57N 34°24' E 135°10'0 0.0
2017-Sep-16 13:06N 34°24' E 135°10'0 0.0
2017-Sep-16 12:48N 34°24' E 135°10'0 0.0
2017-Sep-16 12:30N 34°24' E 135°10'0 0.0
2017-Sep-16 11:45N 34°24' E 135°10'0 0.0
2017-Sep-16 11:30N 34°24' E 135°10'0 0.0
2017-Sep-16 10:00N 34°24' E 135°10'0 0.0
2017-Sep-16 08:12N 34°24' E 135°10'0 0.0
2017-Sep-16 07:51N 34°24' E 135°10'1 3.5
2017-Sep-16 07:29N 34°23' E 135°09'812.0
2017-Sep-16 06:48N 34°17' E 135°03'3 9.7
2017-Sep-16 06:30N 34°15' E 135°06'2 3.5
2017-Sep-16 05:55N 34°14' E 135°08'0 0.0
2017-Sep-16 05:28N 34°14' E 135°08'0 0.0
2017-Sep-16 04:55N 34°14' E 135°08'0 0.0
2017-Sep-16 04:28N 34°14' E 135°08'0 0.0
2017-Sep-16 03:55N 34°14' E 135°08'0 0.0
2017-Sep-16 03:28N 34°14' E 135°08'0 0.0
2017-Sep-16 02:58N 34°14' E 135°08'0 0.0
2017-Sep-16 02:25N 34°14' E 135°08'0 0.0
2017-Sep-16 01:58N 34°14' E 135°08'0 0.0
2017-Sep-16 01:28N 34°14' E 135°08'0 0.0
2017-Sep-16 00:58N 34°14' E 135°08'0 0.0
2017-Sep-16 00:28N 34°14' E 135°08'0 0.0
2017-Sep-15 23:58N 34°14' E 135°08'0 0.0
2017-Sep-15 23:28N 34°14' E 135°08'0 0.0
2017-Sep-15 22:58N 34°14' E 135°08'0 0.0
2017-Sep-15 22:30N 34°14' E 135°08'0 0.3
2017-Sep-15 22:00N 34°14' E 135°08'2 3.2
2017-Sep-15 21:30N 34°14' E 135°06'1 1.6
2017-Sep-15 21:00N 34°15' E 135°05'4 8.3
2017-Sep-15 20:30N 34°11' E 135°03'611.4
2017-Sep-15 19:59N 34°05' E 135°01'2 0.1
2017-Sep-14 22:54N 34°08' E 135°01'613.3
2017-Sep-14 22:28N 34°13' E 135°04'3 7.0
2017-Sep-14 22:00N 34°14' E 135°08'0 0.0
2017-Sep-14 21:30N 34°14' E 135°08'0 0.0
2017-Sep-14 21:00N 34°14' E 135°08'0 0.0
2017-Sep-14 20:30N 34°14' E 135°08'0 0.0
2017-Sep-14 20:00N 34°14' E 135°08'0 0.0
2017-Sep-14 19:30N 34°14' E 135°08'0 0.0
2017-Sep-14 19:00N 34°14' E 135°08'0 0.0
2017-Sep-14 18:30N 34°14' E 135°08'0 0.0
2017-Sep-14 18:00N 34°14' E 135°08'0 0.0
2017-Sep-14 17:30N 34°14' E 135°08'0 0.0
2017-Sep-14 17:00N 34°14' E 135°08'0 0.0
2017-Sep-14 16:30N 34°14' E 135°08'0 0.0
2017-Sep-14 16:00N 34°14' E 135°08'0 0.0
2017-Sep-14 15:30N 34°14' E 135°08'0 0.0
2017-Sep-14 15:00N 34°14' E 135°08'0 0.0
2017-Sep-14 14:30N 34°14' E 135°08'0 0.0
2017-Sep-14 14:00N 34°14' E 135°08'0 0.2
2017-Sep-14 13:30N 34°14' E 135°08'3 6.5
2017-Sep-14 13:00N 34°15' E 135°04'0 1.0
2017-Sep-14 12:31N 34°15' E 135°05'0 0.5
2017-Sep-14 12:01N 34°15' E 135°05'2 3.8
2017-Sep-14 11:30N 34°13' E 135°04'510.7
2017-Sep-14 11:01N 34°09' E 135°01'  
Track history (hours):
 
Tides and Currents Weather Stations Pressure Air Temp Water Temp Dewpoint Dewpoint Depression Visibility Wind Speed Wind Dir Waves Ship Positions

No.21 Shinpuku Maru

Last reported at 2017-Sep-24 02:59 UTC. Time now 2017-Sep-24 03:23 UTC.
Position N 34°14' E 135°08'.

Length 76 m; draft 5 m.

Type: Cargo ship. MMSI: 431602058.

Date/timePositionNaut miles runAvg speedWind from/ knotsBaromVisibWave heightAir tempDewpointWater temp
2017-Sep-24 02:59N 34°14' E 135°08'0 0.0
2017-Sep-24 02:29N 34°14' E 135°08'0 0.0
2017-Sep-24 01:59N 34°14' E 135°08'0 0.0
2017-Sep-24 01:26N 34°14' E 135°08'0 0.0
2017-Sep-24 00:59N 34°14' E 135°08'0 0.0
2017-Sep-24 00:29N 34°14' E 135°08'0 0.0
2017-Sep-23 23:59N 34°14' E 135°08'0 0.0
2017-Sep-23 23:29N 34°14' E 135°08'0 0.0
2017-Sep-23 22:59N 34°14' E 135°08'0 0.0
2017-Sep-23 22:29N 34°14' E 135°08'0 0.5
2017-Sep-23 21:59N 34°14' E 135°08'2 3.9
2017-Sep-23 21:30N 34°15' E 135°06'0 0.0
2017-Sep-23 21:00N 34°15' E 135°06'0 0.1
2017-Sep-23 20:27N 34°15' E 135°06'0 0.0
2017-Sep-23 19:57N 34°15' E 135°06'15 0.3
2017-Sep-21 20:57N 34°01' E 134°58'612.5
2017-Sep-21 20:29N 34°07' E 135°00'612.6
2017-Sep-21 20:01N 34°12' E 135°03'4 8.1
2017-Sep-21 19:30N 34°14' E 135°08'0 0.0
2017-Sep-21 18:58N 34°14' E 135°08'0 0.0
2017-Sep-21 18:28N 34°14' E 135°08'0 0.0
2017-Sep-21 17:58N 34°14' E 135°08'0 0.0
2017-Sep-21 17:28N 34°14' E 135°08'0 0.0
2017-Sep-21 16:58N 34°14' E 135°08'0 0.0
2017-Sep-21 16:28N 34°14' E 135°08'0 0.0
2017-Sep-21 15:58N 34°14' E 135°08'0 0.0
2017-Sep-21 15:28N 34°14' E 135°08'0 0.0
2017-Sep-21 14:55N 34°14' E 135°08'0 0.0
2017-Sep-21 14:28N 34°14' E 135°08'0 0.0
2017-Sep-21 13:58N 34°14' E 135°08'0 0.0
2017-Sep-21 13:28N 34°14' E 135°08'0 0.0
2017-Sep-21 12:58N 34°14' E 135°08'0 0.0
2017-Sep-21 12:28N 34°14' E 135°08'0 0.0
2017-Sep-21 11:58N 34°14' E 135°08'0 0.0
2017-Sep-21 11:28N 34°14' E 135°08'0 0.0
2017-Sep-21 10:49N 34°14' E 135°08'0 0.0
2017-Sep-21 10:29N 34°14' E 135°08'0 0.6
2017-Sep-21 10:00N 34°14' E 135°08'2 3.8
2017-Sep-21 09:30N 34°15' E 135°06'2 3.6
2017-Sep-21 09:00N 34°13' E 135°04'611.4
2017-Sep-21 08:30N 34°08' E 135°01'711.7
2017-Sep-21 07:52N 34°01' E 134°57'4 0.1
2017-Sep-19 21:34N 34°05' E 134°56'412.0
2017-Sep-19 21:16N 34°08' E 134°59'312.0
2017-Sep-19 20:59N 34°10' E 135°02'511.3
2017-Sep-19 20:30N 34°14' E 135°06'2 3.5
2017-Sep-19 19:59N 34°14' E 135°08'0 0.0
2017-Sep-19 19:29N 34°14' E 135°08'0 0.0
2017-Sep-19 19:00N 34°14' E 135°08'0 0.0
2017-Sep-19 18:30N 34°14' E 135°08'0 0.0
2017-Sep-19 17:59N 34°14' E 135°08'0 0.0
2017-Sep-19 17:29N 34°14' E 135°08'0 0.0
2017-Sep-19 17:00N 34°14' E 135°08'0 0.0
2017-Sep-19 16:30N 34°14' E 135°08'0 0.0
2017-Sep-19 15:59N 34°14' E 135°08'0 0.0
2017-Sep-19 15:29N 34°14' E 135°08'0 0.0
2017-Sep-19 14:59N 34°14' E 135°08'0 0.0
2017-Sep-19 14:29N 34°14' E 135°08'0 0.0
2017-Sep-19 14:00N 34°14' E 135°08'0 0.0
2017-Sep-19 13:29N 34°14' E 135°08'0 0.0
2017-Sep-19 12:59N 34°14' E 135°08'0 0.0
2017-Sep-19 12:29N 34°14' E 135°08'0 0.0
2017-Sep-19 11:59N 34°14' E 135°08'0 0.0
2017-Sep-19 11:30N 34°14' E 135°08'1 1.6
2017-Sep-19 11:00N 34°14' E 135°07'3 6.5
2017-Sep-19 10:30N 34°13' E 135°04'612.3
2017-Sep-19 10:00N 34°07' E 135°00'2 0.1
2017-Sep-18 08:35N 34°05' E 134°60'211.3
2017-Sep-18 08:23N 34°07' E 135°02'411.3
2017-Sep-18 08:00N 34°10' E 135°05'4 7.4
2017-Sep-18 07:29N 34°12' E 135°08'0 0.0
2017-Sep-18 06:59N 34°12' E 135°08'0 0.0
2017-Sep-18 06:29N 34°12' E 135°08'0 0.0
2017-Sep-18 05:59N 34°12' E 135°08'0 0.0
2017-Sep-18 05:29N 34°12' E 135°08'0 0.0
2017-Sep-18 04:59N 34°12' E 135°08'0 0.0
2017-Sep-18 04:29N 34°12' E 135°08'0 0.1
2017-Sep-18 03:59N 34°12' E 135°08'3 6.2
2017-Sep-18 03:30N 34°14' E 135°05'710.7
2017-Sep-18 02:48N 34°21' E 135°07'413.3
2017-Sep-18 02:30N 34°24' E 135°10'0 0.2
2017-Sep-18 00:10N 34°24' E 135°10'0 0.0
2017-Sep-17 23:58N 34°24' E 135°10'0 0.1
2017-Sep-17 23:28N 34°24' E 135°10'0 0.0
2017-Sep-17 22:58N 34°24' E 135°10'0 0.0
2017-Sep-17 22:28N 34°24' E 135°10'0 0.0
2017-Sep-17 21:58N 34°24' E 135°10'0 0.0
2017-Sep-17 21:28N 34°24' E 135°10'0 0.0
2017-Sep-17 20:58N 34°24' E 135°10'0 0.0
2017-Sep-17 20:28N 34°24' E 135°10'0 0.0
2017-Sep-17 19:58N 34°24' E 135°10'0 0.0
2017-Sep-17 19:28N 34°24' E 135°10'0 0.1
2017-Sep-17 18:59N 34°24' E 135°10'0 0.1
2017-Sep-17 18:28N 34°24' E 135°10'0 0.0
2017-Sep-17 17:56N 34°24' E 135°10'0 0.0
2017-Sep-17 17:30N 34°24' E 135°10'0 0.0
2017-Sep-17 16:58N 34°24' E 135°10'0 0.0
2017-Sep-17 16:29N 34°24' E 135°10'0 0.0
2017-Sep-17 16:00N 34°24' E 135°10'0 0.0
2017-Sep-17 15:26N 34°24' E 135°10'0 0.0
2017-Sep-17 14:58N 34°24' E 135°10'0 0.0
2017-Sep-17 14:28N 34°24' E 135°10'0 0.1
2017-Sep-17 13:58N 34°24' E 135°10'0 0.1
2017-Sep-17 12:48N 34°25' E 135°10'0 0.1
2017-Sep-17 11:36N 34°25' E 135°10'0 0.1
2017-Sep-17 11:30N 34°25' E 135°10'0 0.1
2017-Sep-17 10:54N 34°24' E 135°10'0 0.1
2017-Sep-17 10:24N 34°24' E 135°10'0 0.1
2017-Sep-17 09:54N 34°24' E 135°10'0 0.0
2017-Sep-17 09:30N 34°24' E 135°10'0 0.0
2017-Sep-17 09:00N 34°24' E 135°10'0 0.0
2017-Sep-17 08:30N 34°24' E 135°10'0 0.0
2017-Sep-17 08:00N 34°24' E 135°10'0 0.0
2017-Sep-17 07:24N 34°24' E 135°10'0 0.0
2017-Sep-17 07:00N 34°24' E 135°10'0 0.0
2017-Sep-17 06:30N 34°24' E 135°10'0 0.0
2017-Sep-17 06:00N 34°24' E 135°10'0 0.0
2017-Sep-17 05:18N 34°24' E 135°10'0 0.0
2017-Sep-17 05:00N 34°24' E 135°10'0 0.0
2017-Sep-17 04:30N 34°24' E 135°10'0 0.0
2017-Sep-17 04:00N 34°24' E 135°10'0 0.0
2017-Sep-17 03:30N 34°24' E 135°10'0 0.0
2017-Sep-17 03:00N 34°24' E 135°10'0 0.0
2017-Sep-17 02:24N 34°24' E 135°10'0 0.0
2017-Sep-17 01:48N 34°24' E 135°10'0 0.0
2017-Sep-17 01:18N 34°24' E 135°10'0 0.0
2017-Sep-17 01:00N 34°24' E 135°10'0 0.0
2017-Sep-17 00:30N 34°24' E 135°10'0 0.0
2017-Sep-17 00:00N 34°24' E 135°10'0 0.0
2017-Sep-16 23:24N 34°24' E 135°10'0 0.0
2017-Sep-16 23:00N 34°24' E 135°10'0 0.0
2017-Sep-16 22:24N 34°24' E 135°10'0 0.1
2017-Sep-16 22:00N 34°24' E 135°10'0 0.0
2017-Sep-16 21:30N 34°24' E 135°10'0 0.0
2017-Sep-16 20:54N 34°24' E 135°10'0 0.0
2017-Sep-16 20:30N 34°24' E 135°10'0 0.0
2017-Sep-16 20:00N 34°24' E 135°10'0 0.0
2017-Sep-16 19:24N 34°24' E 135°10'0 0.0
2017-Sep-16 18:06N 34°24' E 135°10'0 0.0
2017-Sep-16 17:54N 34°24' E 135°10'0 0.0
2017-Sep-16 17:24N 34°24' E 135°10'0 0.0
2017-Sep-16 17:00N 34°24' E 135°10'0 0.0
2017-Sep-16 16:30N 34°24' E 135°10'0 0.0
2017-Sep-16 15:54N 34°24' E 135°10'0 0.0
2017-Sep-16 15:24N 34°24' E 135°10'0 0.0
2017-Sep-16 15:00N 34°24' E 135°10'0 0.0
2017-Sep-16 14:24N 34°24' E 135°10'0 0.0
2017-Sep-16 13:57N 34°24' E 135°10'0 0.0
2017-Sep-16 13:06N 34°24' E 135°10'0 0.0
2017-Sep-16 12:48N 34°24' E 135°10'0 0.0
2017-Sep-16 12:30N 34°24' E 135°10'0 0.0
2017-Sep-16 11:45N 34°24' E 135°10'0 0.0
2017-Sep-16 11:30N 34°24' E 135°10'0 0.0
2017-Sep-16 10:00N 34°24' E 135°10'0 0.0
2017-Sep-16 08:12N 34°24' E 135°10'0 0.0
2017-Sep-16 07:51N 34°24' E 135°10'1 3.5
2017-Sep-16 07:29N 34°23' E 135°09'812.0
2017-Sep-16 06:48N 34°17' E 135°03'3 9.7
2017-Sep-16 06:30N 34°15' E 135°06'2 3.5
2017-Sep-16 05:55N 34°14' E 135°08'0 0.0
2017-Sep-16 05:28N 34°14' E 135°08'0 0.0
2017-Sep-16 04:55N 34°14' E 135°08'0 0.0
2017-Sep-16 04:28N 34°14' E 135°08'0 0.0
2017-Sep-16 03:55N 34°14' E 135°08'0 0.0
2017-Sep-16 03:28N 34°14' E 135°08'0 0.0
2017-Sep-16 02:58N 34°14' E 135°08'0 0.0
2017-Sep-16 02:25N 34°14' E 135°08'0 0.0
2017-Sep-16 01:58N 34°14' E 135°08'0 0.0
2017-Sep-16 01:28N 34°14' E 135°08'0 0.0
2017-Sep-16 00:58N 34°14' E 135°08'0 0.0
2017-Sep-16 00:28N 34°14' E 135°08'0 0.0
2017-Sep-15 23:58N 34°14' E 135°08'0 0.0
2017-Sep-15 23:28N 34°14' E 135°08'0 0.0
2017-Sep-15 22:58N 34°14' E 135°08'0 0.0
2017-Sep-15 22:30N 34°14' E 135°08'0 0.3
2017-Sep-15 22:00N 34°14' E 135°08'2 3.2
2017-Sep-15 21:30N 34°14' E 135°06'1 1.6
2017-Sep-15 21:00N 34°15' E 135°05'4 8.3
2017-Sep-15 20:30N 34°11' E 135°03'611.4
2017-Sep-15 19:59N 34°05' E 135°01'2 0.1
2017-Sep-14 22:54N 34°08' E 135°01'613.3
2017-Sep-14 22:28N 34°13' E 135°04'3 7.0
2017-Sep-14 22:00N 34°14' E 135°08'0 0.0
2017-Sep-14 21:30N 34°14' E 135°08'0 0.0
2017-Sep-14 21:00N 34°14' E 135°08'0 0.0
2017-Sep-14 20:30N 34°14' E 135°08'0 0.0
2017-Sep-14 20:00N 34°14' E 135°08'0 0.0
2017-Sep-14 19:30N 34°14' E 135°08'0 0.0
2017-Sep-14 19:00N 34°14' E 135°08'0 0.0
2017-Sep-14 18:30N 34°14' E 135°08'0 0.0
2017-Sep-14 18:00N 34°14' E 135°08'0 0.0
2017-Sep-14 17:30N 34°14' E 135°08'0 0.0
2017-Sep-14 17:00N 34°14' E 135°08'0 0.0
2017-Sep-14 16:30N 34°14' E 135°08'0 0.0
2017-Sep-14 16:00N 34°14' E 135°08'0 0.0
2017-Sep-14 15:30N 34°14' E 135°08'0 0.0
2017-Sep-14 15:00N 34°14' E 135°08'0 0.0
2017-Sep-14 14:30N 34°14' E 135°08'0 0.0
2017-Sep-14 14:00N 34°14' E 135°08'0 0.2
2017-Sep-14 13:30N 34°14' E 135°08'3 6.5
2017-Sep-14 13:00N 34°15' E 135°04'0 1.0
2017-Sep-14 12:31N 34°15' E 135°05'0 0.5
2017-Sep-14 12:01N 34°15' E 135°05'2 3.8
2017-Sep-14 11:30N 34°13' E 135°04'510.7
2017-Sep-14 11:01N 34°09' E 135°01'  

Dump ship's entire track history